createdAt,value
2022-08-25T00:02:02.965Z,21.40
2022-08-25T00:04:30.022Z,21.40
2022-08-25T00:07:02.131Z,21.40
2022-08-25T00:09:31.924Z,21.50
2022-08-25T00:11:59.371Z,21.40
2022-08-25T00:14:29.971Z,21.40
2022-08-25T00:16:57.282Z,21.40
2022-08-25T00:19:28.394Z,21.40
2022-08-25T00:21:55.666Z,21.30
2022-08-25T00:24:22.610Z,21.30
2022-08-25T00:26:54.872Z,21.20
2022-08-25T00:29:22.602Z,21.10
2022-08-25T00:31:49.231Z,21.20
2022-08-25T00:34:20.689Z,21.10
2022-08-25T00:36:48.037Z,21.10
2022-08-25T00:39:14.672Z,21.10
2022-08-25T00:41:43.448Z,20.90
2022-08-25T00:44:12.741Z,21.00
2022-08-25T00:46:43.682Z,20.90
2022-08-25T00:49:29.340Z,20.80
2022-08-25T00:52:18.217Z,20.80
2022-08-25T00:54:50.686Z,20.90
2022-08-25T00:57:25.480Z,20.90
2022-08-25T01:00:03.454Z,20.80
2022-08-25T01:02:30.131Z,20.80
2022-08-25T01:04:56.786Z,20.70
2022-08-25T01:07:23.848Z,20.60
2022-08-25T01:09:52.409Z,20.70
2022-08-25T01:12:19.496Z,20.60
2022-08-25T01:14:46.541Z,20.60
2022-08-25T01:17:14.531Z,20.50
2022-08-25T01:19:41.913Z,20.60
2022-08-25T01:22:10.503Z,20.60
2022-08-25T01:25:01.927Z,20.60
2022-08-25T01:27:31.133Z,20.70
2022-08-25T01:29:58.098Z,20.60
2022-08-25T01:32:25.128Z,20.50
2022-08-25T01:34:51.994Z,20.50
2022-08-25T01:37:19.189Z,20.30
2022-08-25T01:39:46.289Z,20.20
2022-08-25T01:42:15.717Z,20.00
2022-08-25T01:44:44.379Z,19.90
2022-08-25T01:47:12.018Z,19.80
2022-08-25T01:49:38.675Z,19.80
2022-08-25T01:52:33.858Z,19.60
2022-08-25T01:55:00.507Z,19.60
2022-08-25T01:57:31.064Z,19.50
2022-08-25T01:59:59.007Z,19.50
2022-08-25T02:02:26.269Z,19.70
2022-08-25T02:04:53.093Z,19.60
2022-08-25T02:07:20.030Z,19.80
2022-08-25T02:09:46.970Z,19.60
2022-08-25T02:12:13.760Z,19.60
2022-08-25T02:14:40.643Z,19.50
2022-08-25T02:17:09.690Z,19.50
2022-08-25T02:19:36.362Z,19.50
2022-08-25T02:22:03.090Z,19.50
2022-08-25T02:24:29.718Z,19.60
2022-08-25T02:26:56.702Z,19.60
2022-08-25T02:29:23.558Z,19.50
2022-08-25T02:31:50.150Z,19.40
2022-08-25T02:34:16.933Z,19.50
2022-08-25T02:36:44.064Z,19.40
2022-08-25T02:39:12.007Z,19.40
2022-08-25T02:41:39.065Z,19.30
2022-08-25T02:44:07.198Z,19.50
2022-08-25T02:46:34.038Z,19.40
2022-08-25T02:49:01.147Z,19.30
2022-08-25T02:51:29.996Z,19.30
2022-08-25T02:54:01.946Z,19.30
2022-08-25T02:56:30.326Z,19.40
2022-08-25T02:58:57.205Z,19.30
2022-08-25T03:01:28.443Z,19.40
2022-08-25T03:03:57.048Z,19.40
2022-08-25T03:06:24.407Z,19.30
2022-08-25T03:08:52.447Z,19.30
2022-08-25T03:11:19.903Z,19.20
2022-08-25T03:13:46.865Z,19.30
2022-08-25T03:16:14.632Z,19.30
2022-08-25T03:18:42.413Z,19.20
2022-08-25T03:21:11.378Z,19.20
2022-08-25T03:23:38.630Z,19.20
2022-08-25T03:26:23.882Z,19.00
2022-08-25T03:28:50.714Z,19.00
2022-08-25T03:31:17.502Z,18.90
2022-08-25T03:33:44.258Z,18.90
2022-08-25T03:36:14.546Z,18.90
2022-08-25T03:38:41.489Z,19.00
2022-08-25T03:41:16.254Z,18.90
2022-08-25T03:43:43.381Z,19.00
2022-08-25T03:46:16.478Z,19.00
2022-08-25T03:48:43.150Z,19.20
2022-08-25T03:51:09.780Z,19.10
2022-08-25T03:53:36.478Z,19.00
2022-08-25T03:56:03.518Z,18.90
2022-08-25T03:58:30.297Z,18.80
2022-08-25T04:01:00.164Z,18.70
2022-08-25T04:03:27.006Z,18.70
2022-08-25T04:05:53.618Z,18.60
2022-08-25T04:08:20.594Z,18.60
2022-08-25T04:10:48.034Z,18.60
2022-08-25T04:13:14.730Z,18.50
2022-08-25T04:15:44.610Z,18.60
2022-08-25T04:18:11.611Z,18.60
2022-08-25T04:20:40.515Z,18.50
2022-08-25T04:23:11.488Z,18.50
2022-08-25T04:25:43.973Z,18.40
2022-08-25T04:28:12.950Z,18.30
2022-08-25T04:30:43.099Z,18.30
2022-08-25T04:33:09.734Z,18.30
2022-08-25T04:35:36.338Z,18.40
2022-08-25T04:38:02.962Z,18.40
2022-08-25T04:40:29.587Z,18.40
2022-08-25T04:42:56.254Z,18.40
2022-08-25T04:45:22.899Z,18.50
2022-08-25T04:47:54.315Z,18.50
2022-08-25T04:50:21.526Z,18.50
2022-08-25T04:52:49.288Z,18.40
2022-08-25T04:55:16.066Z,18.40
2022-08-25T04:57:43.258Z,18.40
2022-08-25T05:00:11.469Z,18.50
2022-08-25T05:02:38.390Z,18.60
2022-08-25T05:05:06.478Z,18.50
2022-08-25T05:07:33.090Z,18.50
2022-08-25T05:09:59.657Z,18.60
2022-08-25T05:12:26.502Z,18.60
2022-08-25T05:14:55.666Z,18.60
2022-08-25T05:17:22.578Z,18.60
2022-08-25T05:19:49.234Z,18.80
2022-08-25T05:22:15.815Z,18.90
2022-08-25T05:24:42.459Z,19.00
2022-08-25T05:27:09.162Z,19.10
2022-08-25T05:29:35.856Z,19.10
2022-08-25T05:32:02.684Z,19.40
2022-08-25T05:34:30.127Z,19.50
2022-08-25T05:36:59.933Z,19.50
2022-08-25T05:39:26.886Z,19.80
2022-08-25T05:41:53.654Z,19.90
2022-08-25T05:44:21.381Z,20.00
2022-08-25T05:46:48.385Z,20.10
2022-08-25T05:49:15.211Z,20.30
2022-08-25T05:51:41.820Z,20.30
2022-08-25T05:54:08.449Z,20.40
2022-08-25T05:56:35.083Z,20.30
2022-08-25T05:59:04.068Z,20.30
2022-08-25T06:01:52.524Z,20.30
2022-08-25T06:04:20.249Z,20.40
2022-08-25T06:06:47.366Z,20.40
2022-08-25T06:09:14.079Z,20.60
2022-08-25T06:11:41.367Z,20.80
2022-08-25T06:14:09.396Z,20.90
2022-08-25T06:16:36.178Z,21.30
2022-08-25T06:19:03.121Z,21.40
2022-08-25T06:21:29.760Z,21.50
2022-08-25T06:23:56.944Z,21.60
2022-08-25T06:26:23.899Z,21.60
2022-08-25T06:28:51.358Z,21.70
2022-08-25T06:31:18.772Z,21.90
2022-08-25T06:33:45.844Z,22.00
2022-08-25T06:36:12.859Z,22.00
2022-08-25T06:38:39.482Z,22.20
2022-08-25T06:41:07.737Z,22.40
2022-08-25T06:43:34.960Z,22.30
2022-08-25T06:46:13.286Z,22.60
2022-08-25T06:48:40.547Z,22.70
2022-08-25T06:51:09.126Z,22.80
2022-08-25T06:53:40.908Z,22.90
2022-08-25T06:56:07.863Z,23.00
2022-08-25T06:58:34.740Z,23.30
2022-08-25T07:01:20.127Z,23.50
2022-08-25T07:03:48.166Z,23.50
2022-08-25T07:06:16.600Z,23.60
2022-08-25T07:08:46.525Z,24.30
2022-08-25T07:11:16.718Z,24.80
2022-08-25T07:13:45.083Z,25.10
2022-08-25T07:16:12.399Z,25.80
2022-08-25T07:18:39.169Z,26.50
2022-08-25T07:21:08.843Z,26.80
2022-08-25T07:23:36.231Z,27.30
2022-08-25T07:26:36.328Z,27.50
2022-08-25T07:29:04.274Z,28.00
2022-08-25T07:31:32.837Z,28.50
2022-08-25T07:34:18.411Z,28.50
2022-08-25T07:36:45.492Z,29.10
2022-08-25T07:39:12.383Z,29.30
2022-08-25T07:41:42.141Z,29.30
2022-08-25T07:44:11.072Z,29.10
2022-08-25T07:46:38.805Z,28.70
2022-08-25T07:49:12.618Z,28.70
2022-08-25T07:52:04.297Z,28.30
2022-08-25T07:54:34.091Z,28.20
2022-08-25T07:57:02.260Z,28.20
2022-08-25T07:59:29.142Z,28.70
2022-08-25T08:01:55.904Z,29.50
2022-08-25T08:04:22.538Z,29.70
2022-08-25T08:06:49.273Z,29.40
2022-08-25T08:09:16.608Z,29.20
2022-08-25T08:11:53.910Z,29.50
2022-08-25T08:14:21.265Z,29.90
2022-08-25T08:16:48.191Z,31.00
2022-08-25T08:19:15.687Z,31.40
2022-08-25T08:21:42.594Z,29.70
2022-08-25T08:24:19.771Z,30.10
2022-08-25T08:26:59.140Z,30.50
2022-08-25T08:29:26.781Z,30.60
2022-08-25T08:31:53.551Z,30.90
2022-08-25T08:34:20.220Z,32.30
2022-08-25T08:36:51.950Z,31.90
2022-08-25T08:39:18.598Z,31.50
2022-08-25T08:42:18.575Z,32.00
2022-08-25T08:44:45.130Z,32.10
2022-08-25T08:47:14.714Z,32.70
2022-08-25T08:50:10.446Z,33.40
2022-08-25T08:52:49.472Z,33.00
2022-08-25T08:55:21.313Z,33.90
2022-08-25T08:57:51.834Z,33.10
2022-08-25T09:00:18.598Z,33.50
2022-08-25T09:02:59.114Z,33.80
2022-08-25T09:05:29.660Z,34.00
2022-08-25T09:08:12.407Z,33.50
2022-08-25T09:11:03.476Z,33.40
2022-08-25T09:13:55.350Z,33.90
2022-08-25T09:16:51.368Z,34.40
2022-08-25T09:19:41.970Z,34.30
2022-08-25T09:22:35.397Z,34.20
2022-08-25T09:28:36.945Z,34.80
2022-08-25T09:31:14.687Z,35.00
2022-08-25T09:33:41.388Z,34.60
2022-08-25T09:36:09.008Z,34.80
2022-08-25T09:38:36.432Z,35.30
2022-08-25T09:41:04.174Z,35.10
2022-08-25T09:43:37.231Z,36.10
2022-08-25T09:46:14.145Z,36.00
2022-08-25T09:48:56.899Z,36.20
2022-08-25T09:51:42.616Z,35.90
2022-08-25T09:54:13.059Z,36.20
2022-08-25T09:56:57.541Z,36.20
2022-08-25T09:59:36.622Z,35.50
2022-08-25T10:02:29.328Z,35.70
2022-08-25T10:04:56.446Z,36.90
2022-08-25T10:07:28.337Z,36.90
2022-08-25T10:09:58.645Z,37.30
2022-08-25T10:12:33.473Z,37.10
2022-08-25T10:15:00.309Z,37.90
2022-08-25T10:17:30.486Z,38.00
2022-08-25T10:20:19.829Z,38.10
2022-08-25T10:22:48.297Z,38.50
2022-08-25T10:25:28.034Z,39.90
2022-08-25T10:28:22.508Z,38.70
2022-08-25T10:30:51.961Z,38.60
2022-08-25T10:33:33.934Z,39.50
2022-08-25T10:36:16.200Z,40.10
2022-08-25T10:39:01.540Z,40.80
2022-08-25T10:41:46.536Z,41.30
2022-08-25T10:44:51.802Z,42.20
2022-08-25T10:47:47.151Z,42.80
2022-08-25T10:50:32.977Z,42.10
2022-08-25T10:53:34.541Z,41.80
2022-08-25T10:56:18.961Z,42.20
2022-08-25T10:58:57.163Z,42.40
2022-08-25T11:01:32.950Z,42.60
2022-08-25T11:04:36.512Z,42.90
2022-08-25T11:07:30.550Z,43.30
2022-08-25T11:10:14.219Z,42.50
2022-08-25T11:12:55.877Z,41.90
2022-08-25T11:15:50.254Z,40.60
2022-08-25T11:18:31.797Z,39.70
2022-08-25T11:21:12.763Z,40.50
2022-08-25T11:23:44.443Z,40.50
2022-08-25T11:26:18.947Z,40.40
2022-08-25T11:29:00.801Z,40.80
2022-08-25T11:31:28.158Z,41.70
2022-08-25T11:33:56.267Z,41.40
2022-08-25T11:36:35.723Z,41.80
2022-08-25T11:39:15.629Z,42.60
2022-08-25T11:42:19.657Z,42.90
2022-08-25T11:45:12.972Z,43.10
2022-08-25T11:47:55.912Z,41.10
2022-08-25T11:50:31.669Z,40.70
2022-08-25T11:53:19.135Z,41.70
2022-08-25T11:55:56.233Z,42.10
2022-08-25T11:58:31.659Z,42.30
2022-08-25T12:01:01.299Z,42.50
2022-08-25T12:03:37.177Z,41.90
2022-08-25T12:06:59.003Z,42.00
2022-08-25T12:09:25.661Z,43.10
2022-08-25T12:11:58.325Z,43.40
2022-08-25T12:14:24.920Z,43.60
2022-08-25T12:16:55.458Z,44.60
2022-08-25T12:19:25.246Z,43.70
2022-08-25T12:21:54.423Z,43.20
2022-08-25T12:24:48.065Z,43.10
2022-08-25T12:27:33.638Z,43.00
2022-08-25T12:30:20.945Z,42.40
2022-08-25T12:33:07.890Z,41.40
2022-08-25T12:36:00.082Z,42.30
2022-08-25T12:38:32.853Z,44.00
2022-08-25T12:41:09.926Z,44.40
2022-08-25T12:43:40.644Z,44.50
2022-08-25T12:46:21.631Z,43.10
2022-08-25T12:49:00.369Z,43.30
2022-08-25T12:51:33.018Z,44.00
2022-08-25T12:54:34.113Z,44.90
2022-08-25T12:57:03.998Z,44.30
2022-08-25T12:59:45.815Z,44.30
2022-08-25T13:02:40.100Z,44.00
2022-08-25T13:05:42.654Z,44.90
2022-08-25T13:08:48.122Z,45.20
2022-08-25T13:11:20.348Z,45.70
2022-08-25T13:14:11.133Z,46.30
2022-08-25T13:16:37.791Z,46.00
2022-08-25T13:19:06.982Z,45.30
2022-08-25T13:21:37.578Z,45.70
2022-08-25T13:24:09.147Z,45.10
2022-08-25T13:26:48.565Z,45.10
2022-08-25T13:29:20.991Z,45.50
2022-08-25T13:31:59.855Z,45.70
2022-08-25T13:34:34.788Z,46.30
2022-08-25T13:37:31.419Z,47.10
2022-08-25T13:40:29.381Z,47.00
2022-08-25T13:43:02.667Z,46.70
2022-08-25T13:45:41.466Z,46.00
2022-08-25T13:48:22.520Z,45.40
2022-08-25T13:50:52.011Z,46.00
2022-08-25T13:53:25.556Z,45.60
2022-08-25T13:55:57.430Z,46.00
2022-08-25T13:58:45.296Z,45.80
2022-08-25T14:01:22.903Z,45.20
2022-08-25T14:04:25.227Z,44.80
2022-08-25T14:07:13.255Z,45.40
2022-08-25T14:09:53.603Z,45.00
2022-08-25T14:12:32.915Z,44.90
2022-08-25T14:15:08.781Z,45.80
2022-08-25T14:17:40.132Z,45.20
2022-08-25T14:20:28.768Z,45.40
2022-08-25T14:23:04.541Z,45.20
2022-08-25T14:25:36.063Z,45.80
2022-08-25T14:28:16.346Z,44.50
2022-08-25T14:30:51.807Z,45.00
2022-08-25T14:33:21.267Z,44.90
2022-08-25T14:35:49.883Z,45.30
2022-08-25T14:38:19.557Z,45.20
2022-08-25T14:40:48.007Z,44.80
2022-08-25T14:43:15.326Z,45.50
2022-08-25T14:45:45.325Z,45.80
2022-08-25T14:48:24.841Z,46.20
2022-08-25T14:50:53.127Z,46.20
2022-08-25T14:53:19.950Z,45.50
2022-08-25T14:55:46.735Z,45.80
2022-08-25T14:58:13.920Z,46.70
2022-08-25T15:00:43.845Z,46.20
2022-08-25T15:03:21.550Z,46.20
2022-08-25T15:05:48.197Z,46.50
2022-08-25T15:08:33.633Z,45.30
2022-08-25T15:11:00.541Z,44.90
2022-08-25T15:13:27.431Z,45.50
2022-08-25T15:15:55.106Z,45.80
2022-08-25T15:18:25.712Z,45.20
2022-08-25T15:20:52.480Z,45.10
2022-08-25T15:23:19.472Z,45.00
2022-08-25T15:25:47.992Z,45.30
2022-08-25T15:28:17.151Z,44.80
2022-08-25T15:30:45.884Z,43.30
2022-08-25T15:33:13.513Z,43.80
2022-08-25T15:35:40.802Z,43.50
2022-08-25T15:38:08.199Z,44.10
2022-08-25T15:40:37.391Z,44.00
2022-08-25T15:43:04.624Z,43.50
2022-08-25T15:45:31.933Z,43.20
2022-08-25T15:47:58.588Z,43.20
2022-08-25T15:50:26.750Z,44.10
2022-08-25T15:52:53.578Z,43.80
2022-08-25T15:55:20.891Z,43.90
2022-08-25T15:57:49.671Z,44.10
2022-08-25T16:00:17.909Z,44.30
2022-08-25T16:02:45.605Z,44.70
2022-08-25T16:05:13.718Z,44.80
2022-08-25T16:07:43.208Z,45.40
2022-08-25T16:10:12.557Z,44.90
2022-08-25T16:12:39.957Z,44.90
2022-08-25T16:15:10.049Z,44.70
2022-08-25T16:17:40.794Z,44.90
2022-08-25T16:20:13.937Z,45.00
2022-08-25T16:22:41.201Z,45.20
2022-08-25T16:25:08.358Z,44.90
2022-08-25T16:27:37.793Z,44.20
2022-08-25T16:30:07.398Z,44.20
2022-08-25T16:32:34.731Z,44.10
2022-08-25T16:35:02.571Z,43.90
2022-08-25T16:37:29.736Z,43.30
2022-08-25T16:39:57.236Z,42.90
2022-08-25T16:42:24.169Z,41.80
2022-08-25T16:44:53.977Z,41.20
2022-08-25T16:47:20.955Z,40.20
2022-08-25T16:49:53.880Z,39.60
2022-08-25T16:52:39.054Z,39.60
2022-08-25T16:55:14.257Z,39.70
2022-08-25T16:57:45.253Z,39.40
2022-08-25T17:00:17.551Z,38.80
2022-08-25T17:02:44.252Z,37.90
2022-08-25T17:05:12.429Z,37.70
2022-08-25T17:07:39.457Z,37.50
2022-08-25T17:10:07.142Z,37.40
2022-08-25T17:12:39.489Z,37.20
2022-08-25T17:15:07.578Z,37.20
2022-08-25T17:17:36.242Z,37.00
2022-08-25T17:20:04.909Z,36.80
2022-08-25T17:22:31.951Z,36.50
2022-08-25T17:25:01.021Z,36.30
2022-08-25T17:27:28.273Z,36.30
2022-08-25T17:29:55.788Z,36.10
2022-08-25T17:32:23.107Z,36.20
2022-08-25T17:34:57.074Z,36.30
2022-08-25T17:37:24.428Z,35.90
2022-08-25T17:39:56.806Z,36.00
2022-08-25T17:42:31.707Z,35.90
2022-08-25T17:44:58.463Z,35.70
2022-08-25T17:47:26.961Z,35.20
2022-08-25T17:49:54.004Z,34.80
2022-08-25T17:52:25.002Z,34.70
2022-08-25T17:54:52.573Z,34.30
2022-08-25T17:57:19.748Z,34.00
2022-08-25T17:59:47.919Z,33.70
2022-08-25T18:02:14.609Z,33.40
2022-08-25T18:04:41.522Z,33.10
2022-08-25T18:07:08.230Z,32.80
2022-08-25T18:09:34.966Z,32.50
2022-08-25T18:12:01.693Z,32.20
2022-08-25T18:14:30.056Z,31.90
2022-08-25T18:16:57.550Z,31.60
2022-08-25T18:19:24.187Z,31.30
2022-08-25T18:21:52.400Z,31.00
2022-08-25T18:24:19.305Z,30.70
2022-08-25T18:26:45.958Z,30.30
2022-08-25T18:29:13.209Z,30.10
2022-08-25T18:31:41.747Z,29.80
2022-08-25T18:34:11.042Z,29.60
2022-08-25T18:36:38.785Z,29.30
2022-08-25T18:39:25.204Z,29.10
2022-08-25T18:41:51.830Z,28.90
2022-08-25T18:44:18.584Z,28.60
2022-08-25T18:46:46.167Z,28.50
2022-08-25T18:49:15.976Z,28.30
2022-08-25T18:51:44.534Z,28.10
2022-08-25T18:54:23.075Z,28.00
2022-08-25T18:56:54.516Z,27.80
2022-08-25T18:59:23.499Z,27.70
2022-08-25T19:01:51.154Z,27.60
2022-08-25T19:04:17.824Z,27.40
2022-08-25T19:06:44.671Z,27.30
2022-08-25T19:09:11.740Z,27.10
2022-08-25T19:11:38.574Z,27.00
2022-08-25T19:14:12.450Z,26.90
2022-08-25T19:16:42.461Z,26.80
2022-08-25T19:19:13.230Z,26.60
2022-08-25T19:21:41.598Z,26.50
2022-08-25T19:24:10.802Z,26.40
2022-08-25T19:26:39.455Z,26.20
2022-08-25T19:29:12.406Z,26.00
2022-08-25T19:31:40.638Z,25.80
2022-08-25T19:34:11.914Z,25.70
2022-08-25T19:36:39.245Z,25.50
2022-08-25T19:39:09.843Z,25.40
2022-08-25T19:41:36.657Z,25.40
2022-08-25T19:44:03.928Z,25.20
2022-08-25T19:46:36.438Z,25.10
2022-08-25T19:49:11.900Z,25.00
2022-08-25T19:51:42.083Z,24.90
2022-08-25T19:54:13.011Z,24.80
2022-08-25T19:56:44.018Z,24.60
2022-08-25T19:59:25.418Z,24.50
2022-08-25T20:01:52.962Z,24.50
2022-08-25T20:04:20.030Z,24.50
2022-08-25T20:06:48.434Z,24.40
2022-08-25T20:09:21.131Z,24.40
2022-08-25T20:12:02.893Z,24.20
2022-08-25T20:14:29.623Z,24.00
2022-08-25T20:16:56.362Z,23.90
2022-08-25T20:19:22.952Z,23.90
2022-08-25T20:21:49.566Z,23.80
2022-08-25T20:24:34.650Z,23.60
2022-08-25T20:27:01.382Z,23.60
2022-08-25T20:29:28.001Z,23.50
2022-08-25T20:31:54.618Z,23.50
2022-08-25T20:34:23.138Z,23.50
2022-08-25T20:36:50.618Z,23.40
2022-08-25T20:39:17.958Z,23.40
2022-08-25T20:41:45.269Z,23.30
2022-08-25T20:44:17.613Z,23.30
2022-08-25T20:46:44.761Z,23.40
2022-08-25T20:49:12.703Z,23.30
2022-08-25T20:51:40.301Z,23.30
2022-08-25T20:54:07.462Z,23.40
2022-08-25T20:56:34.146Z,23.30
2022-08-25T20:59:01.922Z,23.30
2022-08-25T21:01:39.705Z,23.40
2022-08-25T21:04:10.033Z,23.40
2022-08-25T21:06:41.712Z,23.50
2022-08-25T21:09:15.893Z,23.40
2022-08-25T21:11:44.212Z,23.40
2022-08-25T21:14:13.088Z,23.40
2022-08-25T21:16:41.340Z,23.40
2022-08-25T21:19:09.057Z,23.30
2022-08-25T21:21:38.710Z,23.30
2022-08-25T21:24:09.273Z,23.30
2022-08-25T21:26:37.703Z,23.30
2022-08-25T21:29:15.768Z,23.30
2022-08-25T21:31:43.097Z,23.40
2022-08-25T21:34:11.564Z,23.30
2022-08-25T21:36:39.672Z,23.30
2022-08-25T21:39:06.626Z,23.10
2022-08-25T21:41:35.447Z,23.10
2022-08-25T21:44:03.895Z,23.10
2022-08-25T21:46:33.399Z,23.10
2022-08-25T21:49:01.518Z,23.10
2022-08-25T21:51:40.776Z,23.10
2022-08-25T21:54:11.688Z,23.10
2022-08-25T21:56:50.953Z,23.10
2022-08-25T21:59:24.497Z,23.20
2022-08-25T22:01:55.757Z,23.10
2022-08-25T22:04:22.805Z,23.10
2022-08-25T22:06:50.366Z,23.00
2022-08-25T22:09:17.501Z,23.00
2022-08-25T22:11:46.261Z,22.90
2022-08-25T22:14:14.081Z,22.90
2022-08-25T22:16:42.323Z,22.70
2022-08-25T22:19:12.075Z,22.60
2022-08-25T22:21:41.790Z,22.50
2022-08-25T22:24:08.981Z,22.40
2022-08-25T22:26:36.394Z,22.30
2022-08-25T22:29:04.329Z,22.30
2022-08-25T22:31:33.653Z,22.30
2022-08-25T22:34:01.229Z,22.20
2022-08-25T22:36:34.599Z,22.30
2022-08-25T22:39:01.821Z,22.30
2022-08-25T22:41:29.993Z,22.30
2022-08-25T22:43:57.638Z,22.20
2022-08-25T22:46:27.919Z,22.00
2022-08-25T22:48:55.997Z,22.00
2022-08-25T22:51:25.434Z,22.00
2022-08-25T22:53:53.090Z,21.90
2022-08-25T22:56:30.811Z,21.80
2022-08-25T22:59:03.944Z,21.70
2022-08-25T23:01:31.996Z,21.60
2022-08-25T23:04:03.140Z,21.60
2022-08-25T23:06:30.134Z,21.50
2022-08-25T23:08:57.598Z,21.50
2022-08-25T23:11:24.943Z,21.40
2022-08-25T23:13:55.409Z,21.30
2022-08-25T23:16:22.439Z,21.40
2022-08-25T23:18:49.477Z,21.30
2022-08-25T23:21:38.005Z,21.20
2022-08-25T23:24:10.716Z,21.10
2022-08-25T23:26:42.501Z,21.10
2022-08-25T23:29:17.945Z,21.00
2022-08-25T23:31:46.039Z,21.00
2022-08-25T23:34:13.383Z,21.00
2022-08-25T23:36:40.430Z,20.90
2022-08-25T23:39:07.787Z,20.90
2022-08-25T23:41:35.386Z,20.80
2022-08-25T23:44:05.237Z,20.80
2022-08-25T23:46:34.923Z,20.70
2022-08-25T23:49:03.317Z,20.80
2022-08-25T23:51:34.086Z,20.70
2022-08-25T23:54:07.051Z,20.60
2022-08-25T23:56:37.200Z,20.50
2022-08-25T23:59:10.639Z,20.50
